createdAt,value
2019-06-26T00:00:26.337Z,6.00
2019-06-26T00:01:26.319Z,6.80
2019-06-26T00:02:26.295Z,8.90
2019-06-26T00:03:26.336Z,9.50
2019-06-26T00:04:26.294Z,6.30
2019-06-26T00:05:26.270Z,7.00
2019-06-26T00:06:26.256Z,10.10
2019-06-26T00:07:26.253Z,10.40
2019-06-26T00:08:26.251Z,6.40
2019-06-26T00:09:26.250Z,8.60
2019-06-26T00:10:26.218Z,11.90
2019-06-26T00:11:26.204Z,7.20
2019-06-26T00:12:26.200Z,9.60
2019-06-26T00:13:27.044Z,8.30
2019-06-26T00:14:26.186Z,6.80
2019-06-26T00:15:26.166Z,9.00
2019-06-26T00:16:26.186Z,9.30
2019-06-26T00:17:26.138Z,9.90
2019-06-26T00:18:26.143Z,7.30
2019-06-26T00:19:26.109Z,8.40
2019-06-26T00:20:26.108Z,11.40
2019-06-26T00:21:26.108Z,9.40
2019-06-26T00:22:26.111Z,7.50
2019-06-26T00:23:26.089Z,10.70
2019-06-26T00:24:26.065Z,10.60
2019-06-26T00:25:26.047Z,11.00
2019-06-26T00:26:26.088Z,8.70
2019-06-26T00:27:26.041Z,13.30
2019-06-26T00:28:26.032Z,11.80
2019-06-26T00:29:26.019Z,10.10
2019-06-26T00:30:25.998Z,9.30
2019-06-26T00:31:25.989Z,9.60
2019-06-26T00:32:26.000Z,10.30
2019-06-26T00:33:25.980Z,7.30
2019-06-26T00:34:25.971Z,9.50
2019-06-26T00:35:25.950Z,10.10
2019-06-26T00:36:25.949Z,11.80
2019-06-26T00:37:25.963Z,8.80
2019-06-26T00:38:25.917Z,11.30
2019-06-26T00:39:25.909Z,9.30
2019-06-26T00:40:25.892Z,10.40
2019-06-26T00:41:25.893Z,9.40
2019-06-26T00:42:25.868Z,7.80
2019-06-26T00:43:38.503Z,8.50
2019-06-26T00:44:26.911Z,8.30
2019-06-26T00:45:25.842Z,11.80
2019-06-26T00:46:25.837Z,7.90
2019-06-26T00:47:25.845Z,8.60
2019-06-26T00:48:25.813Z,13.20
2019-06-26T00:49:25.807Z,10.30
2019-06-26T00:50:25.793Z,9.00
2019-06-26T00:51:25.778Z,8.90
2019-06-26T00:52:25.758Z,8.00
2019-06-26T00:53:25.762Z,9.90
2019-06-26T00:54:25.762Z,11.50
2019-06-26T00:55:25.730Z,10.10
2019-06-26T00:56:25.714Z,14.50
2019-06-26T00:57:25.719Z,8.10
2019-06-26T00:58:25.702Z,9.80
2019-06-26T00:59:25.738Z,9.90
2019-06-26T01:00:25.694Z,8.40
2019-06-26T01:01:25.663Z,8.70
2019-06-26T01:02:25.661Z,7.80
2019-06-26T01:03:25.652Z,10.90
2019-06-26T01:04:25.632Z,8.10
2019-06-26T01:05:25.641Z,9.60
2019-06-26T01:06:25.619Z,9.90
2019-06-26T01:07:25.592Z,9.10
2019-06-26T01:08:25.602Z,8.70
2019-06-26T01:09:25.591Z,10.30
2019-06-26T01:10:25.573Z,12.10
2019-06-26T01:11:25.573Z,8.60
2019-06-26T01:12:25.556Z,8.30
2019-06-26T01:13:25.540Z,11.70
2019-06-26T01:14:25.532Z,9.40
2019-06-26T01:15:25.510Z,9.30
2019-06-26T01:16:25.512Z,10.30
2019-06-26T01:17:25.504Z,9.70
2019-06-26T01:18:25.485Z,9.70
2019-06-26T01:19:25.486Z,8.90
2019-06-26T01:20:25.462Z,8.80
2019-06-26T01:21:25.483Z,8.80
2019-06-26T01:22:25.446Z,8.60
2019-06-26T01:23:25.464Z,8.90
2019-06-26T01:24:25.423Z,10.50
2019-06-26T01:25:25.413Z,8.80
2019-06-26T01:26:25.417Z,8.30
2019-06-26T01:27:25.396Z,9.00
2019-06-26T01:28:25.371Z,9.00
2019-06-26T01:29:25.370Z,10.30
2019-06-26T01:30:25.354Z,8.50
2019-06-26T01:31:25.385Z,13.30
2019-06-26T01:32:25.335Z,8.00
2019-06-26T01:33:25.326Z,9.50
2019-06-26T01:34:25.373Z,9.90
2019-06-26T01:35:25.305Z,8.70
2019-06-26T01:36:25.296Z,8.30
2019-06-26T01:37:25.293Z,8.50
2019-06-26T01:38:25.304Z,8.80
2019-06-26T01:39:25.269Z,9.20
2019-06-26T01:40:25.243Z,9.30
2019-06-26T01:41:25.245Z,8.80
2019-06-26T01:42:25.223Z,9.50
2019-06-26T01:43:25.225Z,9.10
2019-06-26T01:44:25.237Z,8.60
2019-06-26T01:45:25.248Z,8.70
2019-06-26T01:46:25.185Z,8.80
2019-06-26T01:47:25.172Z,9.10
2019-06-26T01:48:25.186Z,8.90
2019-06-26T01:49:25.158Z,10.70
2019-06-26T01:50:25.137Z,9.00
2019-06-26T01:51:25.131Z,8.60
2019-06-26T01:52:25.113Z,8.60
2019-06-26T01:53:25.135Z,8.40
2019-06-26T01:54:25.111Z,8.80
2019-06-26T01:55:25.096Z,9.10
2019-06-26T01:56:25.090Z,9.10
2019-06-26T01:57:25.073Z,8.90
2019-06-26T01:58:25.059Z,8.50
2019-06-26T01:59:25.067Z,9.90
2019-06-26T02:00:25.070Z,8.90
2019-06-26T02:01:25.025Z,9.30
2019-06-26T02:02:25.017Z,9.50
2019-06-26T02:03:25.006Z,8.90
2019-06-26T02:04:25.037Z,9.10
2019-06-26T02:05:24.989Z,10.10
2019-06-26T02:06:24.967Z,9.50
2019-06-26T02:07:24.970Z,9.60
2019-06-26T02:08:24.949Z,9.10
2019-06-26T02:09:24.969Z,9.40
2019-06-26T02:10:24.936Z,9.50
2019-06-26T02:11:24.927Z,9.70
2019-06-26T02:12:24.922Z,11.20
2019-06-26T02:13:24.902Z,9.30
2019-06-26T02:14:30.950Z,10.10
2019-06-26T02:15:25.876Z,9.60
2019-06-26T02:16:24.887Z,9.50
2019-06-26T02:17:24.856Z,9.20
2019-06-26T02:18:24.849Z,10.70
2019-06-26T02:19:24.835Z,9.40
2019-06-26T02:20:24.826Z,8.80
2019-06-26T02:21:24.838Z,9.60
2019-06-26T02:22:24.834Z,9.80
2019-06-26T02:23:24.786Z,9.70
2019-06-26T02:24:24.793Z,9.60
2019-06-26T02:25:24.806Z,9.90
2019-06-26T02:26:24.786Z,10.60
2019-06-26T02:27:24.746Z,10.90
2019-06-26T02:28:24.739Z,9.50
2019-06-26T02:29:24.727Z,9.60
2019-06-26T02:30:24.731Z,9.50
2019-06-26T02:31:24.712Z,9.40
2019-06-26T02:32:24.713Z,9.70
2019-06-26T02:33:24.736Z,9.20
2019-06-26T02:34:24.683Z,9.80
2019-06-26T02:35:24.656Z,11.90
2019-06-26T02:36:24.668Z,9.80
2019-06-26T02:37:24.658Z,11.00
2019-06-26T02:38:24.650Z,9.70
2019-06-26T02:39:24.629Z,9.50
2019-06-26T02:40:24.605Z,9.80
2019-06-26T02:41:24.610Z,10.00
2019-06-26T02:42:24.599Z,9.60
2019-06-26T02:43:24.590Z,9.50
2019-06-26T02:44:24.581Z,10.40
2019-06-26T02:45:24.550Z,10.60
2019-06-26T02:46:24.558Z,9.50
2019-06-26T02:47:24.573Z,10.60
2019-06-26T02:48:24.566Z,10.10
2019-06-26T02:49:24.523Z,10.50
2019-06-26T02:50:24.506Z,10.00
2019-06-26T02:51:24.497Z,11.30
2019-06-26T02:52:24.491Z,10.40
2019-06-26T02:53:24.480Z,10.30
2019-06-26T02:54:24.490Z,11.30
2019-06-26T02:55:24.447Z,10.50
2019-06-26T02:56:24.439Z,10.50
2019-06-26T02:57:24.423Z,10.90
2019-06-26T02:58:24.419Z,11.00
2019-06-26T02:59:24.417Z,11.20
2019-06-26T03:00:24.397Z,11.20
2019-06-26T03:01:24.412Z,12.10
2019-06-26T03:02:24.398Z,12.10
2019-06-26T03:03:24.362Z,10.90
2019-06-26T03:04:24.385Z,11.00
2019-06-26T03:05:24.342Z,11.30
2019-06-26T03:06:24.341Z,10.30
2019-06-26T03:07:24.354Z,11.80
2019-06-26T03:08:24.339Z,12.00
2019-06-26T03:09:24.302Z,11.00
2019-06-26T03:10:24.303Z,11.10
2019-06-26T03:11:24.290Z,11.90
2019-06-26T03:12:24.260Z,11.50
2019-06-26T03:13:24.259Z,12.80
2019-06-26T03:14:24.268Z,11.20
2019-06-26T03:15:24.239Z,10.90
2019-06-26T03:16:24.248Z,10.70
2019-06-26T03:17:24.212Z,10.30
2019-06-26T03:18:24.212Z,11.50
2019-06-26T03:19:24.189Z,10.90
2019-06-26T03:20:24.199Z,11.60
2019-06-26T03:21:24.177Z,12.10
2019-06-26T03:22:24.163Z,12.60
2019-06-26T03:23:24.163Z,10.80
2019-06-26T03:24:24.139Z,11.30
2019-06-26T03:25:24.141Z,11.60
2019-06-26T03:26:24.141Z,10.90
2019-06-26T03:27:24.100Z,11.40
2019-06-26T03:28:24.111Z,11.50
2019-06-26T03:29:24.084Z,11.10
2019-06-26T03:30:24.242Z,11.50
2019-06-26T03:31:24.068Z,10.50
2019-06-26T03:32:24.058Z,10.50
2019-06-26T03:33:24.056Z,11.40
2019-06-26T03:34:24.041Z,10.80
2019-06-26T03:35:24.033Z,11.30
2019-06-26T03:36:24.040Z,12.00
2019-06-26T03:37:24.002Z,11.00
2019-06-26T03:38:24.006Z,13.50
2019-06-26T03:39:23.979Z,11.90
2019-06-26T03:40:23.966Z,11.80
2019-06-26T03:41:24.020Z,14.90
2019-06-26T03:42:23.961Z,12.80
2019-06-26T03:43:23.952Z,11.00
2019-06-26T03:44:23.929Z,11.70
2019-06-26T03:45:26.298Z,11.70
2019-06-26T03:46:23.935Z,12.50
2019-06-26T03:47:23.912Z,11.60
2019-06-26T03:48:23.878Z,11.70
2019-06-26T03:49:23.876Z,12.10
2019-06-26T03:50:23.860Z,12.00
2019-06-26T03:51:23.859Z,12.40
2019-06-26T03:52:23.865Z,12.50
2019-06-26T03:53:23.833Z,12.40
2019-06-26T03:54:23.813Z,13.50
2019-06-26T03:55:23.804Z,12.10
2019-06-26T03:56:23.804Z,12.40
2019-06-26T03:57:23.790Z,12.20
2019-06-26T03:58:23.792Z,11.60
2019-06-26T03:59:23.786Z,12.20
2019-06-26T04:00:23.784Z,11.00
2019-06-26T04:01:23.745Z,11.40
2019-06-26T04:02:23.735Z,11.40
2019-06-26T04:03:23.771Z,12.10
2019-06-26T04:04:23.724Z,12.10
2019-06-26T04:05:25.154Z,11.80
2019-06-26T04:06:23.693Z,11.70
2019-06-26T04:07:23.683Z,11.80
2019-06-26T04:08:23.664Z,12.20
2019-06-26T04:09:23.680Z,12.50
2019-06-26T04:10:23.658Z,13.30
2019-06-26T04:11:23.634Z,14.10
2019-06-26T04:12:23.636Z,16.10
2019-06-26T04:13:23.616Z,16.80
2019-06-26T04:14:23.612Z,16.70
2019-06-26T04:15:23.625Z,16.70
2019-06-26T04:16:23.573Z,17.90
2019-06-26T04:17:23.571Z,16.70
2019-06-26T04:18:23.557Z,14.70
2019-06-26T04:19:23.554Z,16.30
2019-06-26T04:20:23.548Z,15.60
2019-06-26T04:21:23.545Z,17.00
2019-06-26T04:22:23.524Z,15.00
2019-06-26T04:23:23.580Z,16.70
2019-06-26T04:24:23.503Z,17.00
2019-06-26T04:25:23.505Z,17.30
2019-06-26T04:26:23.498Z,16.60
2019-06-26T04:27:23.464Z,16.70
2019-06-26T04:28:24.546Z,17.20
2019-06-26T04:29:23.432Z,17.20
2019-06-26T04:30:23.457Z,19.00
2019-06-26T04:31:23.435Z,20.70
2019-06-26T04:32:23.436Z,17.50
2019-06-26T04:33:23.396Z,18.30
2019-06-26T04:34:23.385Z,17.00
2019-06-26T04:35:23.379Z,18.30
2019-06-26T04:36:23.362Z,17.30
2019-06-26T04:37:23.373Z,16.20
2019-06-26T04:38:23.345Z,16.40
2019-06-26T04:39:23.347Z,18.60
2019-06-26T04:40:23.328Z,18.10
2019-06-26T04:41:23.306Z,20.20
2019-06-26T04:42:23.323Z,20.40
2019-06-26T04:43:24.115Z,21.80
2019-06-26T04:44:23.283Z,21.10
2019-06-26T04:45:23.274Z,20.70
2019-06-26T04:46:23.263Z,20.50
2019-06-26T04:47:23.252Z,20.50
2019-06-26T04:48:23.259Z,20.50
2019-06-26T04:49:23.253Z,22.80
2019-06-26T04:50:23.206Z,22.90
2019-06-26T04:51:23.216Z,22.70
2019-06-26T04:52:23.206Z,22.70
2019-06-26T04:53:23.177Z,23.80
2019-06-26T04:54:23.191Z,24.70
2019-06-26T04:55:24.135Z,24.90
2019-06-26T04:56:23.481Z,23.60
2019-06-26T04:57:23.854Z,25.50
2019-06-26T04:58:23.254Z,24.80
2019-06-26T04:59:24.954Z,24.70
2019-06-26T05:00:27.005Z,26.10
2019-06-26T05:01:25.992Z,27.80
2019-06-26T05:02:24.102Z,27.20
2019-06-26T05:03:23.090Z,27.80
2019-06-26T05:04:23.081Z,27.70
2019-06-26T05:05:38.202Z,30.70
2019-06-26T05:06:24.075Z,29.10
2019-06-26T05:07:23.028Z,29.10
2019-06-26T05:08:23.030Z,29.40
2019-06-26T05:09:23.027Z,30.10
2019-06-26T05:10:23.032Z,34.70
2019-06-26T05:11:23.011Z,35.10
2019-06-26T05:12:23.012Z,30.80
2019-06-26T05:13:22.988Z,32.60
2019-06-26T05:14:23.407Z,32.00
2019-06-26T05:15:22.960Z,32.30
2019-06-26T05:16:22.976Z,35.70
2019-06-26T05:17:22.944Z,36.80
2019-06-26T05:18:22.923Z,39.10
2019-06-26T05:19:22.897Z,37.30
2019-06-26T05:20:22.885Z,38.20
2019-06-26T05:21:22.922Z,36.30
2019-06-26T05:22:22.914Z,37.90
2019-06-26T05:23:22.856Z,37.80
2019-06-26T05:24:22.898Z,40.90
2019-06-26T05:25:22.837Z,39.60
2019-06-26T05:26:22.847Z,40.70
2019-06-26T05:27:22.834Z,39.00
2019-06-26T05:28:22.809Z,39.80
2019-06-26T05:29:22.808Z,38.10
2019-06-26T05:30:22.786Z,39.00
2019-06-26T05:31:22.795Z,35.80
2019-06-26T05:32:22.790Z,42.20
2019-06-26T05:33:22.750Z,42.50
2019-06-26T05:34:22.790Z,45.40
2019-06-26T05:35:22.727Z,44.20
2019-06-26T05:36:22.730Z,48.90
2019-06-26T05:37:22.709Z,45.20
2019-06-26T05:38:22.722Z,46.10
2019-06-26T05:39:22.688Z,45.10
2019-06-26T05:40:22.697Z,45.50
2019-06-26T05:41:22.660Z,45.30
2019-06-26T05:42:22.656Z,50.20
2019-06-26T05:43:22.667Z,49.00
2019-06-26T05:44:22.629Z,52.00
2019-06-26T05:45:22.628Z,53.10
2019-06-26T05:46:30.871Z,50.00
2019-06-26T05:47:23.598Z,52.40
2019-06-26T05:48:22.618Z,52.10
2019-06-26T05:49:22.608Z,52.50
2019-06-26T05:50:22.568Z,50.50
2019-06-26T05:51:22.565Z,49.40
2019-06-26T05:52:22.555Z,49.40
2019-06-26T05:53:22.548Z,49.60
2019-06-26T05:54:22.541Z,49.70
2019-06-26T05:55:22.536Z,45.90
2019-06-26T05:56:22.531Z,45.10
2019-06-26T05:57:22.504Z,48.80
2019-06-26T05:58:22.480Z,47.90
2019-06-26T05:59:22.470Z,48.70
2019-06-26T06:00:22.460Z,46.70
2019-06-26T06:01:22.449Z,47.50
2019-06-26T06:02:22.459Z,55.60
2019-06-26T06:03:22.431Z,53.20
2019-06-26T06:04:22.570Z,53.00
2019-06-26T06:05:22.452Z,51.70
2019-06-26T06:06:22.484Z,52.60
2019-06-26T06:07:22.863Z,51.40
2019-06-26T06:08:23.362Z,53.00
2019-06-26T06:09:23.466Z,53.40
2019-06-26T06:10:22.767Z,51.50
2019-06-26T06:11:22.359Z,53.10
2019-06-26T06:12:22.377Z,55.80
2019-06-26T06:13:22.330Z,50.80
2019-06-26T06:14:22.312Z,53.30
2019-06-26T06:15:22.316Z,54.70
2019-06-26T06:16:22.316Z,54.70
2019-06-26T06:17:22.941Z,52.90
2019-06-26T06:18:23.532Z,55.40
2019-06-26T06:19:22.484Z,52.90
2019-06-26T06:20:22.283Z,50.70
2019-06-26T06:21:22.247Z,56.40
2019-06-26T06:22:22.709Z,50.70
2019-06-26T06:23:22.229Z,51.40
2019-06-26T06:24:22.319Z,50.70
2019-06-26T06:25:22.429Z,50.60
2019-06-26T06:26:22.438Z,50.00
2019-06-26T06:27:22.518Z,50.20
2019-06-26T06:28:22.231Z,53.10
2019-06-26T06:29:22.181Z,48.10
2019-06-26T06:30:22.173Z,49.00
2019-06-26T06:31:23.075Z,47.40
2019-06-26T06:32:22.120Z,45.40
2019-06-26T06:33:22.792Z,47.50
2019-06-26T06:34:22.133Z,52.50
2019-06-26T06:35:22.462Z,47.60
2019-06-26T06:36:22.184Z,44.40
2019-06-26T06:37:22.403Z,45.50
2019-06-26T06:38:22.077Z,44.10
2019-06-26T06:39:22.062Z,46.80
2019-06-26T06:40:22.054Z,41.80
2019-06-26T06:41:22.037Z,43.10
2019-06-26T06:42:22.014Z,44.20
2019-06-26T06:43:22.023Z,43.90
2019-06-26T06:44:22.024Z,45.20
2019-06-26T06:45:21.984Z,47.10
2019-06-26T06:46:22.007Z,44.00
2019-06-26T06:47:21.962Z,43.70
2019-06-26T06:48:21.953Z,43.70
2019-06-26T06:49:21.961Z,45.70
2019-06-26T06:50:21.929Z,46.50
2019-06-26T06:51:21.962Z,46.50
2019-06-26T06:52:21.913Z,45.20
2019-06-26T06:53:21.903Z,43.60
2019-06-26T06:54:21.935Z,43.40
2019-06-26T06:55:21.882Z,42.70
2019-06-26T06:56:21.885Z,44.30
2019-06-26T06:57:21.863Z,45.00
2019-06-26T06:58:21.850Z,42.30
2019-06-26T06:59:21.873Z,39.90
2019-06-26T07:00:21.831Z,43.50
2019-06-26T07:01:21.835Z,42.70
2019-06-26T07:02:21.812Z,40.00
2019-06-26T07:03:21.793Z,40.50
2019-06-26T07:04:21.793Z,39.60
2019-06-26T07:05:21.774Z,42.10
2019-06-26T07:06:21.763Z,39.50
2019-06-26T07:07:21.765Z,40.10
2019-06-26T07:08:21.742Z,38.90
2019-06-26T07:09:21.727Z,40.70
2019-06-26T07:10:21.724Z,39.40
2019-06-26T07:11:21.717Z,39.70
2019-06-26T07:12:21.765Z,37.40
2019-06-26T07:13:21.685Z,38.00
2019-06-26T07:14:21.687Z,42.70
2019-06-26T07:15:21.687Z,39.80
2019-06-26T07:16:21.661Z,39.30
2019-06-26T07:17:21.686Z,38.50
2019-06-26T07:18:21.636Z,38.00
2019-06-26T07:19:21.657Z,36.40
2019-06-26T07:20:21.618Z,35.30
2019-06-26T07:21:21.604Z,35.30
2019-06-26T07:22:21.594Z,35.40
2019-06-26T07:23:21.584Z,37.20
2019-06-26T07:24:21.575Z,35.70
2019-06-26T07:25:21.598Z,36.00
2019-06-26T07:26:21.556Z,36.50
2019-06-26T07:27:21.544Z,36.20
2019-06-26T07:28:21.621Z,37.90
2019-06-26T07:29:21.525Z,36.80
2019-06-26T07:30:21.568Z,35.80
2019-06-26T07:31:21.498Z,36.10
2019-06-26T07:32:21.502Z,36.20
2019-06-26T07:33:21.507Z,35.20
2019-06-26T07:34:21.521Z,36.40
2019-06-26T07:35:21.465Z,33.10
2019-06-26T07:36:21.546Z,35.00
2019-06-26T07:37:21.444Z,33.70
2019-06-26T07:38:21.428Z,37.50
2019-06-26T07:39:21.498Z,35.90
2019-06-26T07:40:21.436Z,35.40
2019-06-26T07:41:21.418Z,35.90
2019-06-26T07:42:21.397Z,33.80
2019-06-26T07:43:21.404Z,31.90
2019-06-26T07:44:21.366Z,31.40
2019-06-26T07:45:24.040Z,30.50
2019-06-26T07:46:21.361Z,31.20
2019-06-26T07:47:23.495Z,32.90
2019-06-26T07:48:22.326Z,31.40
2019-06-26T07:49:21.309Z,32.90
2019-06-26T07:50:21.297Z,28.80
2019-06-26T07:51:21.331Z,28.20
2019-06-26T07:52:21.347Z,29.00
2019-06-26T07:53:22.348Z,27.80
2019-06-26T07:54:21.270Z,30.40
2019-06-26T07:55:21.258Z,27.40
2019-06-26T07:56:21.249Z,28.90
2019-06-26T07:57:21.254Z,27.90
2019-06-26T07:58:21.216Z,31.50
2019-06-26T07:59:21.200Z,26.70
2019-06-26T08:00:21.246Z,24.20
2019-06-26T08:01:21.181Z,22.20
2019-06-26T08:02:21.174Z,27.00
2019-06-26T08:03:21.200Z,29.70
2019-06-26T08:04:21.169Z,26.40
2019-06-26T08:05:21.519Z,27.50
2019-06-26T08:06:21.542Z,28.00
2019-06-26T08:07:21.645Z,28.00
2019-06-26T08:08:21.682Z,27.00
2019-06-26T08:09:21.096Z,25.30
2019-06-26T08:10:21.088Z,23.80
2019-06-26T08:11:21.078Z,27.30
2019-06-26T08:12:21.070Z,24.00
2019-06-26T08:13:21.153Z,23.30
2019-06-26T08:14:21.280Z,22.70
2019-06-26T08:15:21.052Z,22.60
2019-06-26T08:16:21.032Z,23.30
2019-06-26T08:17:21.022Z,24.10
2019-06-26T08:18:21.015Z,25.10
2019-06-26T08:19:20.991Z,24.70
2019-06-26T08:20:21.031Z,20.80
2019-06-26T08:21:20.975Z,21.60
2019-06-26T08:22:20.980Z,18.50
2019-06-26T08:23:20.949Z,23.70
2019-06-26T08:24:20.944Z,19.10
2019-06-26T08:25:20.954Z,22.40
2019-06-26T08:26:20.923Z,23.00
2019-06-26T08:27:20.927Z,25.50
2019-06-26T08:28:20.941Z,22.80
2019-06-26T08:29:20.955Z,21.00
2019-06-26T08:30:20.919Z,20.70
2019-06-26T08:31:21.046Z,23.00
2019-06-26T08:32:20.938Z,21.70
2019-06-26T08:33:20.842Z,21.90
2019-06-26T08:34:20.899Z,19.10
2019-06-26T08:35:20.893Z,17.10
2019-06-26T08:36:20.844Z,16.50
2019-06-26T08:37:20.865Z,17.20
2019-06-26T08:38:20.805Z,16.20
2019-06-26T08:39:20.799Z,16.60
2019-06-26T08:40:20.806Z,18.90
2019-06-26T08:41:20.778Z,17.90
2019-06-26T08:42:20.766Z,16.00
2019-06-26T08:43:20.763Z,15.50
2019-06-26T08:44:20.734Z,14.30
2019-06-26T08:45:20.732Z,13.20
2019-06-26T08:46:20.713Z,16.20
2019-06-26T08:47:20.720Z,14.20
2019-06-26T08:48:38.282Z,15.70
2019-06-26T08:49:26.012Z,15.50
2019-06-26T08:50:20.681Z,14.40
2019-06-26T08:51:20.663Z,16.50
2019-06-26T08:52:20.667Z,14.20
2019-06-26T08:53:20.662Z,13.70
2019-06-26T08:54:20.656Z,13.40
2019-06-26T08:55:20.624Z,13.60
2019-06-26T08:56:20.639Z,14.30
2019-06-26T08:57:20.627Z,13.20
2019-06-26T08:58:20.599Z,13.30
2019-06-26T08:59:20.601Z,14.80
2019-06-26T09:00:20.608Z,13.40
2019-06-26T09:01:20.582Z,12.40
2019-06-26T09:02:20.576Z,14.90
2019-06-26T09:03:20.544Z,12.00
2019-06-26T09:04:20.546Z,14.40
2019-06-26T09:05:20.569Z,12.50
2019-06-26T09:06:20.526Z,13.30
2019-06-26T09:07:20.514Z,13.90
2019-06-26T09:08:20.552Z,14.20
2019-06-26T09:09:20.511Z,13.50
2019-06-26T09:10:20.493Z,10.90
2019-06-26T09:11:20.497Z,14.00
2019-06-26T09:12:20.466Z,12.00
2019-06-26T09:13:20.459Z,10.40
2019-06-26T09:14:20.460Z,10.20
2019-06-26T09:15:20.439Z,10.10
2019-06-26T09:16:21.455Z,12.30
2019-06-26T09:17:20.424Z,9.70
2019-06-26T09:18:34.362Z,10.10
2019-06-26T09:19:21.421Z,10.50
2019-06-26T09:20:20.383Z,11.10
2019-06-26T09:21:20.390Z,10.10
2019-06-26T09:22:20.389Z,9.50
2019-06-26T09:23:20.394Z,9.70
2019-06-26T09:24:20.348Z,10.30
2019-06-26T09:25:22.460Z,11.20
2019-06-26T09:26:20.354Z,12.00
2019-06-26T09:27:20.319Z,10.50
2019-06-26T09:28:20.326Z,11.10
2019-06-26T09:29:23.688Z,10.60
2019-06-26T09:30:20.320Z,9.30
2019-06-26T09:31:20.317Z,11.60
2019-06-26T09:32:20.309Z,9.50
2019-06-26T09:33:20.279Z,14.00
2019-06-26T09:34:20.259Z,9.70
2019-06-26T09:35:20.250Z,10.10
2019-06-26T09:36:21.084Z,10.30
2019-06-26T09:37:20.249Z,9.90
2019-06-26T09:38:20.247Z,9.80
2019-06-26T09:39:20.245Z,9.50
2019-06-26T09:40:20.243Z,10.20
2019-06-26T09:41:20.217Z,12.50
2019-06-26T09:42:20.191Z,11.90
2019-06-26T09:43:20.224Z,10.70
2019-06-26T09:44:20.186Z,10.30
2019-06-26T09:45:20.176Z,11.10
2019-06-26T09:46:21.253Z,10.20
2019-06-26T09:47:20.150Z,9.10
2019-06-26T09:48:20.155Z,10.70
2019-06-26T09:49:20.133Z,9.30
2019-06-26T09:50:20.273Z,10.80
2019-06-26T09:51:20.135Z,10.10
2019-06-26T09:52:20.106Z,10.50
2019-06-26T09:53:20.142Z,10.30
2019-06-26T09:54:20.088Z,12.20
2019-06-26T09:55:20.081Z,11.40
2019-06-26T09:56:20.080Z,9.60
2019-06-26T09:57:20.059Z,11.90
2019-06-26T09:58:20.047Z,9.30
2019-06-26T09:59:20.038Z,11.40
2019-06-26T10:00:20.033Z,10.70
2019-06-26T10:01:20.041Z,10.60
2019-06-26T10:02:20.012Z,10.80
2019-06-26T10:03:20.021Z,14.70
2019-06-26T10:04:20.002Z,11.70
2019-06-26T10:05:20.196Z,12.40
2019-06-26T10:06:20.022Z,10.70
2019-06-26T10:07:20.047Z,11.50
2019-06-26T10:08:19.972Z,10.60
2019-06-26T10:09:20.047Z,12.20
2019-06-26T10:10:19.949Z,13.20
2019-06-26T10:11:21.379Z,12.00
2019-06-26T10:12:20.317Z,12.40
2019-06-26T10:13:19.934Z,11.70
2019-06-26T10:14:19.932Z,15.00
2019-06-26T10:15:19.931Z,14.10
2019-06-26T10:16:19.898Z,12.20
2019-06-26T10:17:19.873Z,15.50
2019-06-26T10:18:19.899Z,12.10
2019-06-26T10:19:20.511Z,14.30
2019-06-26T10:20:20.020Z,14.20
2019-06-26T10:21:23.509Z,15.00
2019-06-26T10:22:19.820Z,12.90
2019-06-26T10:23:19.822Z,13.60
2019-06-26T10:24:19.819Z,12.90
2019-06-26T10:25:19.832Z,13.70
2019-06-26T10:26:19.799Z,17.70
2019-06-26T10:27:19.791Z,14.80
2019-06-26T10:28:20.409Z,12.00
2019-06-26T10:29:20.186Z,12.40
2019-06-26T10:30:19.913Z,13.10
2019-06-26T10:31:20.085Z,13.90
2019-06-26T10:32:20.195Z,13.90
2019-06-26T10:33:20.197Z,11.90
2019-06-26T10:34:20.579Z,11.80
2019-06-26T10:35:19.947Z,14.30
2019-06-26T10:36:23.516Z,12.30
2019-06-26T10:37:19.935Z,11.10
2019-06-26T10:38:19.795Z,12.80
2019-06-26T10:39:20.477Z,11.40
2019-06-26T10:40:20.989Z,13.70
2019-06-26T10:41:20.422Z,13.40
2019-06-26T10:42:19.908Z,16.90
2019-06-26T10:43:19.800Z,14.50
2019-06-26T10:44:19.754Z,14.90
2019-06-26T10:45:19.920Z,15.20
2019-06-26T10:46:19.855Z,12.60
2019-06-26T10:47:19.994Z,14.00
2019-06-26T10:48:19.623Z,13.40
2019-06-26T10:49:26.804Z,13.60
2019-06-26T10:50:20.586Z,12.20
2019-06-26T10:51:19.582Z,14.20
2019-06-26T10:52:19.571Z,11.90
2019-06-26T10:53:19.581Z,13.00
2019-06-26T10:54:19.525Z,10.80
2019-06-26T10:55:19.544Z,12.70
2019-06-26T10:56:19.536Z,12.40
2019-06-26T10:57:19.495Z,13.50
2019-06-26T10:58:19.493Z,13.90
2019-06-26T10:59:19.500Z,13.70
2019-06-26T11:00:19.488Z,12.70
2019-06-26T11:01:19.526Z,12.80
2019-06-26T11:02:19.908Z,14.20
2019-06-26T11:03:19.997Z,14.00
2019-06-26T11:04:20.041Z,12.90
2019-06-26T11:05:19.795Z,12.30
2019-06-26T11:06:19.663Z,13.70
2019-06-26T11:07:19.680Z,13.20
2019-06-26T11:08:20.929Z,14.30
2019-06-26T11:09:19.396Z,11.80
2019-06-26T11:10:19.403Z,12.10
2019-06-26T11:11:19.365Z,15.80
2019-06-26T11:12:20.015Z,14.00
2019-06-26T11:13:19.376Z,13.70
2019-06-26T11:14:19.397Z,14.70
2019-06-26T11:15:19.988Z,12.00
2019-06-26T11:16:19.769Z,11.90
2019-06-26T11:17:19.598Z,11.50
2019-06-26T11:18:19.425Z,13.70
2019-06-26T11:19:19.829Z,11.60
2019-06-26T11:20:19.336Z,10.60
2019-06-26T11:21:20.087Z,10.20
2019-06-26T11:22:19.694Z,10.00
2019-06-26T11:23:19.595Z,9.80
2019-06-26T11:24:19.436Z,9.40
2019-06-26T11:25:19.470Z,9.50
2019-06-26T11:26:19.495Z,11.60
2019-06-26T11:27:19.402Z,12.00
2019-06-26T11:28:19.426Z,10.40
2019-06-26T11:29:19.250Z,10.10
2019-06-26T11:30:19.198Z,10.20
2019-06-26T11:31:19.203Z,11.60
2019-06-26T11:32:19.726Z,10.90
2019-06-26T11:33:19.760Z,12.30
2019-06-26T11:34:20.084Z,10.30
2019-06-26T11:35:19.226Z,10.50
2019-06-26T11:36:19.178Z,10.00
2019-06-26T11:37:22.656Z,10.10
2019-06-26T11:38:19.165Z,12.80
2019-06-26T11:39:19.124Z,11.90
2019-06-26T11:40:19.117Z,11.00
2019-06-26T11:41:19.126Z,13.10
2019-06-26T11:42:19.093Z,11.80
2019-06-26T11:43:19.074Z,12.10
2019-06-26T11:44:19.076Z,14.10
2019-06-26T11:45:19.075Z,12.50
2019-06-26T11:46:19.075Z,12.40
2019-06-26T11:47:19.065Z,14.00
2019-06-26T11:48:19.049Z,14.70
2019-06-26T11:49:19.054Z,15.50
2019-06-26T11:50:20.902Z,13.80
2019-06-26T11:51:19.466Z,17.50
2019-06-26T11:52:19.830Z,15.20
2019-06-26T11:53:19.355Z,16.80
2019-06-26T11:54:19.250Z,16.10
2019-06-26T11:55:19.936Z,17.00
2019-06-26T11:56:19.509Z,19.90
2019-06-26T11:57:19.916Z,20.10
2019-06-26T11:58:19.090Z,16.80
2019-06-26T11:59:20.181Z,23.10
2019-06-26T12:00:19.430Z,22.80
2019-06-26T12:01:19.524Z,24.00
2019-06-26T12:02:19.319Z,18.90
2019-06-26T12:03:19.254Z,21.20
2019-06-26T12:04:19.149Z,22.20
2019-06-26T12:05:19.133Z,23.10
2019-06-26T12:06:19.765Z,18.90
2019-06-26T12:07:19.024Z,20.10
2019-06-26T12:08:19.220Z,22.80
2019-06-26T12:09:18.965Z,19.90
2019-06-26T12:10:19.098Z,16.90
2019-06-26T12:11:19.095Z,18.20
2019-06-26T12:12:19.071Z,17.00
2019-06-26T12:13:18.979Z,13.90
2019-06-26T12:14:18.923Z,10.70
2019-06-26T12:15:18.864Z,12.10
2019-06-26T12:16:18.986Z,13.00
2019-06-26T12:17:18.899Z,13.00
2019-06-26T12:18:18.922Z,16.10
2019-06-26T12:19:22.492Z,15.60
2019-06-26T12:20:19.990Z,18.50
2019-06-26T12:21:18.993Z,17.90
2019-06-26T12:22:18.973Z,16.20
2019-06-26T12:23:18.873Z,13.70
2019-06-26T12:24:18.887Z,10.90
2019-06-26T12:25:18.841Z,11.40
2019-06-26T12:26:18.911Z,11.70
2019-06-26T12:27:18.916Z,11.50
2019-06-26T12:28:19.583Z,9.90
2019-06-26T12:29:19.191Z,10.40
2019-06-26T12:30:19.320Z,10.50
2019-06-26T12:31:18.847Z,11.20
2019-06-26T12:32:19.071Z,12.30
2019-06-26T12:33:19.228Z,11.00
2019-06-26T12:34:18.985Z,9.70
2019-06-26T12:35:19.766Z,7.80
2019-06-26T12:36:18.726Z,7.80
2019-06-26T12:37:18.696Z,8.10
2019-06-26T12:38:18.798Z,9.20
2019-06-26T12:39:20.087Z,10.60
2019-06-26T12:40:19.516Z,11.60
2019-06-26T12:41:19.184Z,12.90
2019-06-26T12:42:19.637Z,9.20
2019-06-26T12:43:19.253Z,15.10
2019-06-26T12:44:18.795Z,14.30
2019-06-26T12:45:20.118Z,12.40
2019-06-26T12:46:18.608Z,11.40
2019-06-26T12:47:20.180Z,11.20
2019-06-26T12:49:11.402Z,12.10
2019-06-26T12:50:11.481Z,11.20
2019-06-26T12:55:46.793Z,17.40
2019-06-26T12:56:44.657Z,16.80
2019-06-26T12:57:43.402Z,14.40
2019-06-26T12:58:43.213Z,14.70
2019-06-26T12:59:56.771Z,11.70
2019-06-26T13:00:44.268Z,12.10
2019-06-26T13:01:43.454Z,11.90
2019-06-26T13:02:43.375Z,11.10